Time;durP1;ratioP1;P1;durP2;ratioP2;P2;SDS_P1;SDS_P2;PMS_P1;PMS_P2;Temp;Humidity;BMP_temperature;BMP_pressure;BME280_temperature;BME280_humidity;BME280_pressure;Samples;Min_cycle;Max_cycle;Signal;HPM_P1;HPM_P2
2023/01/13 00:00:15;;;;;;;5.45;2.22;;;;;;;6.04;69.54;96139.53;5031119;28;20053;-80
2023/01/13 00:02:42;;;;;;;4.05;1.77;;;;;;;6.02;69.77;96133.63;5032233;28;20049;-80
2023/01/13 00:05:11;;;;;;;5.03;2.17;;;;;;;5.97;70.10;96122.88;5031223;28;20045;-79
2023/01/13 00:07:38;;;;;;;4.13;1.90;;;;;;;6.03;69.98;96118.19;5025695;28;20516;-78
2023/01/13 00:10:07;;;;;;;4.00;2.00;;;;;;;6.03;70.20;96115.50;5031066;28;20053;-77
2023/01/13 00:12:33;;;;;;;2.92;1.27;;;;;;;6.01;70.22;96110.41;5030624;28;20060;-79
2023/01/13 00:15:00;;;;;;;4.28;1.95;;;;;;;6.04;69.79;96101.69;5033492;28;20060;-80
2023/01/13 00:17:26;;;;;;;5.78;2.40;;;;;;;6.01;70.20;96103.09;5030282;28;20045;-79
2023/01/13 00:19:52;;;;;;;5.32;2.00;;;;;;;6.07;69.95;96100.31;5029943;28;20537;-79
2023/01/13 00:22:20;;;;;;;5.30;1.80;;;;;;;6.09;69.85;96090.78;5032603;28;20052;-79
2023/01/13 00:24:47;;;;;;;5.47;1.60;;;;;;;6.11;69.56;96090.47;5031258;28;20056;-78
2023/01/13 00:27:13;;;;;;;4.40;1.77;;;;;;;6.16;69.45;96093.09;5029902;28;20045;-78
2023/01/13 00:29:40;;;;;;;5.95;1.95;;;;;;;6.18;69.66;96093.63;5029533;28;20045;-79
2023/01/13 00:32:06;;;;;;;6.78;2.45;;;;;;;6.15;69.92;96096.91;5027799;28;20054;-81
2023/01/13 00:34:33;;;;;;;3.30;1.30;;;;;;;6.17;69.59;96092.03;5030824;28;20057;-79
2023/01/13 00:36:59;;;;;;;3.10;1.55;;;;;;;6.14;69.69;96090.69;5030619;28;20065;-77
2023/01/13 00:39:27;;;;;;;6.05;2.03;;;;;;;6.13;70.02;96096.41;5029773;28;20048;-78
2023/01/13 00:44:38;;;;;;;4.45;1.92;;;;;;;6.12;70.10;96084.00;5021241;28;20062;-83
2023/01/13 00:47:04;;;;;;;6.65;2.15;;;;;;;6.14;69.95;96084.50;5030046;28;20052;-78
2023/01/13 00:49:31;;;;;;;5.80;1.58;;;;;;;6.15;69.96;96075.28;5030216;28;20518;-77
2023/01/13 00:51:57;;;;;;;3.88;1.30;;;;;;;6.25;69.67;96075.09;5030797;28;20056;-77
2023/01/13 00:54:24;;;;;;;3.47;1.48;;;;;;;6.16;69.76;96071.47;5030980;28;20041;-80
2023/01/13 00:56:52;;;;;;;3.65;1.83;;;;;;;6.10;70.16;96073.47;5033366;28;20053;-77
2023/01/13 00:59:18;;;;;;;1.33;0.70;;;;;;;6.13;70.46;96072.09;5032314;28;20054;-78
2023/01/13 01:01:45;;;;;;;5.03;1.70;;;;;;;6.09;70.58;96074.56;5031906;28;20118;-81
2023/01/13 01:04:11;;;;;;;4.85;1.80;;;;;;;6.09;70.18;96079.16;5029738;28;20057;-79
2023/01/13 01:06:38;;;;;;;5.93;1.90;;;;;;;6.12;70.29;96078.59;5028414;28;20144;-79
2023/01/13 01:09:05;;;;;;;5.85;2.05;;;;;;;6.25;69.62;96075.09;5031707;28;20525;-77
2023/01/13 01:11:33;;;;;;;5.95;2.03;;;;;;;6.18;69.74;96066.59;5033143;28;20065;-81
2023/01/13 01:14:03;;;;;;;4.75;1.63;;;;;;;6.17;69.87;96078.50;5040725;28;20053;-78
2023/01/13 01:16:31;;;;;;;7.95;2.00;;;;;;;6.18;69.80;96074.69;5030595;28;20052;-80
2023/01/13 01:18:58;;;;;;;6.38;1.98;;;;;;;6.20;69.87;96078.69;5027124;28;20046;-84
2023/01/13 01:21:26;;;;;;;6.25;1.55;;;;;;;6.16;70.36;96082.28;5025306;28;20051;-84
2023/01/13 01:23:53;;;;;;;7.95;2.15;;;;;;;6.15;70.04;96075.28;5030729;28;20049;-80
2023/01/13 01:26:22;;;;;;;6.03;1.63;;;;;;;6.15;70.17;96078.78;5029332;28;20056;-80
2023/01/13 01:28:49;;;;;;;5.47;1.77;;;;;;;6.20;70.34;96070.59;5029164;28;20049;-80
2023/01/13 01:31:18;;;;;;;7.07;2.03;;;;;;;6.24;70.11;96070.81;5029053;28;20175;-79
2023/01/13 01:33:46;;;;;;;6.30;1.38;;;;;;;6.34;69.85;96062.50;5029874;28;20053;-79
2023/01/13 01:36:14;;;;;;;6.85;1.95;;;;;;;6.43;69.67;96076.16;5028741;28;20049;-79
2023/01/13 01:38:40;;;;;;;9.55;2.28;;;;;;;6.54;69.71;96061.34;5029013;28;20053;-80
2023/01/13 01:41:07;;;;;;;10.88;2.78;;;;;;;6.56;69.49;96050.22;5027679;28;20399;-85
2023/01/13 01:44:05;;;;;;;2.88;0.52;;;;;;;6.50;69.97;96044.09;5031674;28;20422;-84
2023/01/13 01:46:36;;;;;;;6.97;1.80;;;;;;;6.48;69.83;96046.31;5033128;28;20046;-84
2023/01/13 01:49:08;;;;;;;10.88;2.20;;;;;;;6.59;69.51;96046.94;5031442;28;20085;-78
2023/01/13 01:51:41;;;;;;;6.43;1.70;;;;;;;6.65;69.36;96045.72;5026043;28;20054;-79
2023/01/13 01:54:12;;;;;;;1.27;0.45;;;;;;;6.70;69.39;96037.50;5026192;28;20045;-84
2023/01/13 01:56:43;;;;;;;4.20;1.60;;;;;;;6.70;69.08;96038.31;5029468;28;20061;-79
2023/01/13 01:59:10;;;;;;;3.78;1.60;;;;;;;6.82;68.81;96037.81;5028397;28;20057;-76
2023/01/13 02:01:40;;;;;;;4.05;1.48;;;;;;;6.86;68.40;96038.81;5030172;28;20057;-82
2023/01/13 02:04:12;;;;;;;4.68;1.60;;;;;;;6.88;68.28;96028.47;5032044;28;20049;-87
2023/01/13 02:06:39;;;;;;;5.30;1.52;;;;;;;6.92;68.64;96037.59;5029408;28;20536;-81
2023/01/13 02:09:07;;;;;;;3.47;1.67;;;;;;;6.94;68.06;96040.81;5030712;28;20052;-85
2023/01/13 02:14:22;;;;;;;10.15;2.15;;;;;;;7.09;67.31;96018.00;5028544;28;20111;-78
2023/01/13 02:16:59;;;;;;;6.45;1.45;;;;;;;7.09;67.42;96019.91;5024607;28;20046;-84
2023/01/13 02:19:47;;;;;;;8.23;1.48;;;;;;;7.15;66.73;96016.00;5022769;28;20048;-77
2023/01/13 02:22:39;;;;;;;14.68;2.35;;;;;;;7.21;66.33;96014.81;5036687;28;20507;-78
2023/01/13 02:25:21;;;;;;;5.13;1.98;;;;;;;7.18;66.53;96016.19;5035569;28;20460;-79
2023/01/13 02:28:00;;;;;;;4.70;1.67;;;;;;;7.19;66.55;96017.78;5039081;28;20049;-81
2023/01/13 02:33:49;;;;;;;2.60;1.27;;;;;;;7.24;66.02;96011.47;5035892;28;20121;-80
2023/01/13 02:36:24;;;;;;;1.67;1.20;;;;;;;7.24;66.10;96008.75;5032673;28;20056;-82
2023/01/13 02:38:56;;;;;;;2.03;0.60;;;;;;;7.25;66.41;96007.66;5032060;28;20053;-78
2023/01/13 02:44:16;;;;;;;1.60;0.80;;;;;;;7.30;65.37;96005.63;5032654;28;20188;-81
2023/01/13 02:46:51;;;;;;;1.38;0.47;;;;;;;7.28;65.64;96009.75;5033791;28;20049;-81
2023/01/13 02:49:27;;;;;;;2.90;1.20;;;;;;;7.29;65.61;96001.31;5032080;28;20445;-83
2023/01/13 02:52:00;;;;;;;1.60;0.73;;;;;;;7.28;65.76;95993.50;5028758;28;20056;-82
2023/01/13 02:54:29;;;;;;;7.53;1.70;;;;;;;7.26;65.85;95993.81;5024412;28;20048;-85
2023/01/13 02:57:00;;;;;;;4.00;1.13;;;;;;;7.24;65.62;95987.91;5033068;28;20049;-83
2023/01/13 02:59:28;;;;;;;8.85;1.77;;;;;;;7.21;65.66;95988.53;5031658;28;20506;-82
2023/01/13 03:01:56;;;;;;;8.95;1.73;;;;;;;7.18;65.98;95993.75;5032931;28;20425;-77
2023/01/13 03:04:47;;;;;;;5.18;1.38;;;;;;;7.14;65.91;95982.69;5030790;28;20049;-77
2023/01/13 03:07:40;;;;;;;5.15;1.20;;;;;;;7.11;65.96;95985.25;5031317;28;20046;-80
2023/01/13 03:10:11;;;;;;;15.60;3.10;;;;;;;7.07;66.27;95980.41;5018427;28;20057;-76
2023/01/13 03:12:44;;;;;;;5.93;1.50;;;;;;;7.05;66.07;95974.53;5031624;28;20041;-79
2023/01/13 03:15:17;;;;;;;15.82;2.42;;;;;;;7.03;66.05;95974.00;5026101;28;20057;-77
2023/01/13 03:17:54;;;;;;;9.23;1.52;;;;;;;7.03;65.99;95971.31;5031700;28;20061;-78
2023/01/13 03:20:27;;;;;;;4.25;1.23;;;;;;;6.99;66.03;95969.50;5031501;28;20053;-77
2023/01/13 03:23:01;;;;;;;3.38;1.05;;;;;;;6.95;66.15;95963.91;5032209;28;20052;-77
2023/01/13 03:25:31;;;;;;;10.60;1.70;;;;;;;6.95;66.19;95968.53;5024298;28;20041;-76
2023/01/13 03:28:02;;;;;;;6.80;1.67;;;;;;;6.96;65.90;95965.50;5030461;28;20056;-78
2023/01/13 03:30:33;;;;;;;2.33;0.93;;;;;;;6.88;66.29;95977.03;5024476;28;20052;-78
2023/01/13 03:33:07;;;;;;;2.70;0.85;;;;;;;6.88;66.27;95968.91;5031579;28;20041;-78
2023/01/13 03:35:37;;;;;;;4.50;0.70;;;;;;;6.91;65.62;95971.03;5031630;28;20049;-76
2023/01/13 03:38:08;;;;;;;0.95;0.47;;;;;;;6.91;65.82;95971.03;5030019;28;20049;-78
2023/01/13 03:40:40;;;;;;;11.52;1.80;;;;;;;6.92;65.98;95966.41;5031664;28;20053;-76
2023/01/13 03:45:59;;;;;;;1.08;0.43;;;;;;;6.84;65.74;95962.53;5027787;28;20054;-78
2023/01/13 03:48:30;;;;;;;0.85;0.47;;;;;;;6.89;65.85;95958.88;5021282;28;20053;-79
2023/01/13 03:51:05;;;;;;;3.30;0.35;;;;;;;6.96;65.06;95960.09;5031420;28;20045;-77
2023/01/13 03:53:36;;;;;;;0.75;0.30;;;;;;;6.95;64.93;95958.50;5024056;28;20462;-77
2023/01/13 03:56:10;;;;;;;1.63;0.60;;;;;;;6.99;65.07;95962.19;5031067;28;20442;-78
2023/01/13 03:58:42;;;;;;;1.05;0.40;;;;;;;7.06;64.77;95965.28;5026025;28;20553;-78
2023/01/13 04:01:14;;;;;;;1.35;0.47;;;;;;;7.19;64.75;95957.44;5030825;28;20041;-78
2023/01/13 04:03:49;;;;;;;0.30;0.30;;;;;;;7.24;64.77;95954.59;5031432;28;20042;-77
2023/01/13 04:06:20;;;;;;;0.47;0.32;;;;;;;7.25;64.59;95951.56;5030903;28;20053;-78
2023/01/13 04:08:56;;;;;;;2.28;0.73;;;;;;;7.31;64.63;95963.13;5029300;28;20053;-76
2023/01/13 04:11:30;;;;;;;0.22;0.22;;;;;;;7.31;64.19;95949.56;5030212;28;20406;-76
2023/01/13 04:13:58;;;;;;;3.80;1.40;;;;;;;7.39;63.99;95950.75;5032035;28;20045;-77
2023/01/13 04:16:25;;;;;;;2.58;1.00;;;;;;;7.41;63.36;95948.50;5023850;28;20467;-78
2023/01/13 04:18:53;;;;;;;1.00;0.60;;;;;;;7.27;63.54;95954.78;5035170;28;20045;-78
2023/01/13 04:21:19;;;;;;;2.30;0.88;;;;;;;7.27;63.77;95935.03;5027858;28;20060;-77
2023/01/13 04:23:50;;;;;;;4.07;1.73;;;;;;;7.33;63.55;95941.94;5031265;28;20045;-78
2023/01/13 04:26:16;;;;;;;18.08;2.40;;;;;;;7.31;63.26;95933.31;5030623;28;20107;-75
2023/01/13 04:28:43;;;;;;;1.15;0.70;;;;;;;7.34;63.43;95935.41;5030952;28;20540;-77
2023/01/13 04:31:09;;;;;;;9.82;1.52;;;;;;;7.28;63.50;95933.94;5030809;28;20053;-78
2023/01/13 04:33:36;;;;;;;6.60;1.80;;;;;;;7.26;64.05;95930.75;5030398;28;20054;-78
2023/01/13 04:36:04;;;;;;;2.53;1.20;;;;;;;7.30;63.73;95939.81;5032118;28;20049;-79
2023/01/13 04:38:31;;;;;;;4.07;1.13;;;;;;;7.30;63.77;95940.63;5036331;28;20052;-76
2023/01/13 04:40:57;;;;;;;2.65;1.05;;;;;;;7.33;63.80;95937.31;5036462;28;20048;-78
2023/01/13 04:43:24;;;;;;;3.03;1.60;;;;;;;7.36;63.53;95943.22;5031333;28;20056;-78
2023/01/13 04:45:50;;;;;;;30.08;2.38;;;;;;;7.36;63.03;95938.63;5028096;28;20133;-77
2023/01/13 04:48:17;;;;;;;20.92;2.92;;;;;;;7.39;63.07;95946.13;5032213;28;20060;-78
2023/01/13 04:50:43;;;;;;;24.65;2.10;;;;;;;7.38;63.17;95944.53;5034628;28;20100;-78
2023/01/13 04:53:11;;;;;;;59.25;3.40;;;;;;;7.39;63.42;95940.69;5034175;28;20053;-79
2023/01/13 04:55:38;;;;;;;8.30;1.77;;;;;;;7.39;63.37;95948.81;5034787;28;20056;-76
2023/01/13 04:58:06;;;;;;;17.75;2.58;;;;;;;7.42;61.90;95942.81;5031549;28;20053;-76
2023/01/13 05:00:33;;;;;;;27.70;2.28;;;;;;;7.28;62.10;95934.72;5032590;28;20514;-77
2023/01/13 05:03:00;;;;;;;29.48;2.30;;;;;;;7.18;62.21;95934.16;5032150;28;20060;-76
2023/01/13 05:05:28;;;;;;;27.63;2.30;;;;;;;7.16;62.27;95936.38;5032883;28;20048;-78
2023/01/13 05:07:54;;;;;;;25.27;2.10;;;;;;;7.10;62.58;95943.00;5037089;28;20120;-81
2023/01/13 05:10:22;;;;;;;21.90;1.80;;;;;;;7.04;62.94;95937.69;5038087;28;20049;-81
2023/01/13 05:18:18;;;;;;;35.85;3.08;;;;;;;6.98;63.44;95933.50;5032630;28;20060;-83
2023/01/13 05:20:45;;;;;;;47.60;5.35;;;;;;;6.86;64.60;95943.28;5035961;28;20091;-81
2023/01/13 05:25:57;;;;;;;17.35;1.60;;;;;;;6.60;66.94;95937.59;5036519;28;20529;-79
2023/01/13 05:28:23;;;;;;;9.32;1.45;;;;;;;6.51;67.16;95932.88;5021462;28;20053;-79
2023/01/13 05:30:51;;;;;;;17.48;1.92;;;;;;;6.44;67.56;95937.91;5029154;28;20045;-77
2023/01/13 05:33:20;;;;;;;24.75;2.70;;;;;;;6.48;67.22;95928.09;5031875;28;20132;-79
2023/01/13 05:35:47;;;;;;;6.47;1.60;;;;;;;6.72;65.93;95927.06;5033908;28;20510;-83
2023/01/13 05:38:15;;;;;;;27.70;3.00;;;;;;;6.83;65.58;95928.44;5033786;28;20053;-80
2023/01/13 05:43:28;;;;;;;8.90;1.73;;;;;;;7.12;64.00;95929.97;5026618;28;20056;-79
2023/01/13 05:45:57;;;;;;;9.85;1.67;;;;;;;7.30;62.97;95926.28;5032457;28;20056;-80
2023/01/13 05:48:26;;;;;;;10.63;2.08;;;;;;;7.50;62.31;95920.38;5026318;28;20045;-77
2023/01/13 05:50:53;;;;;;;20.13;1.85;;;;;;;7.53;62.37;95914.34;5035338;28;20060;-78
2023/01/13 05:53:20;;;;;;;20.73;2.08;;;;;;;7.57;62.55;95931.59;5033284;28;20576;-82
2023/01/13 05:55:47;;;;;;;21.02;1.90;;;;;;;7.75;61.55;95937.91;5040145;28;20045;-80
2023/01/13 05:58:15;;;;;;;25.85;2.25;;;;;;;7.87;61.07;95934.63;5039028;28;20057;-80
2023/01/13 06:00:43;;;;;;;18.88;1.75;;;;;;;7.93;60.61;95932.59;5038127;28;20056;-79
2023/01/13 06:03:10;;;;;;;25.52;2.67;;;;;;;7.97;60.92;95934.38;5039880;28;20057;-80
2023/01/13 06:05:37;;;;;;;19.73;2.10;;;;;;;8.06;60.82;95937.94;5039826;28;20509;-80
2023/01/13 06:08:05;;;;;;;46.20;11.32;;;;;;;8.08;60.49;95935.69;5039291;28;20455;-82
2023/01/13 06:10:33;;;;;;;16.27;1.73;;;;;;;8.14;60.13;95927.44;5038582;28;20048;-89
2023/01/13 06:12:59;;;;;;;21.75;2.00;;;;;;;8.17;60.05;95924.09;5035010;28;20048;-82
2023/01/13 06:15:27;;;;;;;24.15;1.80;;;;;;;8.23;60.02;95925.56;5040124;28;20050;-89
2023/01/13 06:17:55;;;;;;;25.88;1.92;;;;;;;8.31;59.11;95924.81;5040679;28;20075;-80
2023/01/13 06:20:23;;;;;;;30.98;2.20;;;;;;;8.32;59.59;95929.09;5036615;28;20057;-85
2023/01/13 06:22:51;;;;;;;30.17;1.95;;;;;;;8.32;60.00;95931.81;5037559;28;20041;-85
2023/01/13 06:25:25;;;;;;;32.95;2.67;;;;;;;8.36;59.16;95930.13;5041098;28;20060;-88
2023/01/13 06:27:54;;;;;;;23.95;2.38;;;;;;;8.32;59.65;95929.09;5041940;28;20045;-87
2023/01/13 06:30:20;;;;;;;24.40;2.35;;;;;;;8.28;59.80;95928.13;5042053;28;20057;-84
2023/01/13 06:32:51;;;;;;;21.75;2.28;;;;;;;8.26;60.03;95928.44;5040088;28;20057;-85
2023/01/13 06:35:25;;;;;;;17.17;1.83;;;;;;;8.24;60.13;95932.56;5040395;28;20057;-84
2023/01/13 06:37:55;;;;;;;12.27;2.08;;;;;;;8.25;60.47;95934.19;5036841;28;20721;-83
2023/01/13 06:40:22;;;;;;;7.82;1.75;;;;;;;8.37;59.25;95929.00;5041233;28;20057;-82
2023/01/13 06:45:34;;;;;;;7.35;1.52;;;;;;;8.51;59.05;95921.56;5035551;28;20059;-84
2023/01/13 06:48:01;;;;;;;12.35;1.80;;;;;;;8.57;59.12;95931.13;5042296;28;20057;-86
2023/01/13 06:50:29;;;;;;;15.88;1.67;;;;;;;8.57;59.48;95931.13;5042712;28;20045;-84
2023/01/13 06:52:55;;;;;;;19.02;1.95;;;;;;;8.59;59.42;95926.19;5043427;28;20069;-83
2023/01/13 06:55:22;;;;;;;19.67;2.13;;;;;;;8.54;59.99;95936.38;5042483;28;20399;-83
2023/01/13 06:57:50;;;;;;;19.98;2.22;;;;;;;8.57;60.38;95936.56;5041411;28;20049;-83
2023/01/13 07:00:17;;;;;;;52.33;3.42;;;;;;;8.56;60.15;95943.13;5040475;28;20052;-81
2023/01/13 07:02:43;;;;;;;31.77;1.83;;;;;;;8.56;60.49;95940.41;5042890;28;20041;-84
2023/01/13 07:05:10;;;;;;;39.70;2.67;;;;;;;8.49;60.87;95934.63;5041512;28;20049;-83
2023/01/13 07:07:38;;;;;;;77.53;4.50;;;;;;;8.48;61.26;95937.66;5040522;28;20069;-85
2023/01/13 07:10:08;;;;;;;41.88;2.58;;;;;;;8.48;61.63;95940.38;5041710;28;20053;-86
2023/01/13 07:15:17;;;;;;;25.70;1.88;;;;;;;8.46;61.76;95923.63;5041526;28;20128;-84
2023/01/13 07:15:22;;;;;;;14.30;1.23;;;;;;;8.49;62.02;95931.91;5042558;28;20109;-85
2023/01/13 07:17:48;;;;;;;34.40;2.42;;;;;;;8.48;61.85;95927.59;5042564;28;20072;-83
2023/01/13 07:20:15;;;;;;;44.97;3.00;;;;;;;8.49;62.46;95923.75;5043037;28;20060;-85
2023/01/13 07:22:43;;;;;;;20.92;2.15;;;;;;;8.41;62.93;95932.69;5043799;28;20045;-85
2023/01/13 07:25:10;;;;;;;28.73;2.55;;;;;;;8.34;63.46;95924.16;5043013;28;20051;-87
2023/01/13 07:27:37;;;;;;;17.00;2.08;;;;;;;8.30;63.86;95936.75;5043895;28;20041;-84
2023/01/13 07:30:04;;;;;;;42.03;2.15;;;;;;;8.28;64.47;95934.34;5042777;28;20053;-83
2023/01/13 07:32:31;;;;;;;9.85;1.70;;;;;;;8.35;64.03;95929.28;5043870;28;20095;-81
2023/01/13 07:35:03;;;;;;;27.80;2.83;;;;;;;8.36;63.61;95940.97;5044709;28;20053;-85
2023/01/13 07:37:30;;;;;;;29.42;3.15;;;;;;;8.42;63.30;95933.50;5043039;28;20044;-84
2023/01/13 07:39:58;;;;;;;16.48;1.63;;;;;;;8.45;62.50;95944.50;5043295;28;20536;-85
2023/01/13 07:45:09;;;;;;;16.85;2.63;;;;;;;8.42;63.16;95933.50;5042858;28;20076;-82
2023/01/13 07:47:36;;;;;;;82.68;4.13;;;;;;;8.38;63.23;95933.31;5040387;28;20521;-83
2023/01/13 07:50:02;;;;;;;25.13;2.70;;;;;;;8.39;63.15;95940.31;5040110;28;20050;-85
2023/01/13 07:52:29;;;;;;;1.73;1.10;;;;;;;8.40;63.46;95935.69;5040511;28;20045;-82
2023/01/13 07:54:55;;;;;;;4.45;1.52;;;;;;;8.30;63.92;95936.75;5040413;28;20457;-89
2023/01/13 07:57:23;;;;;;;6.43;1.67;;;;;;;8.31;64.07;95941.06;5039186;28;20048;-81
2023/01/13 07:59:50;;;;;;;5.70;1.40;;;;;;;8.25;64.20;95939.63;5039738;28;20502;-84
2023/01/13 08:02:16;;;;;;;9.57;2.00;;;;;;;8.26;64.11;95947.44;5039026;28;20049;-84
2023/01/13 08:04:43;;;;;;;6.60;1.50;;;;;;;8.24;63.99;95946.13;5040572;28;20042;-85
2023/01/13 08:07:09;;;;;;;10.68;2.25;;;;;;;8.26;64.04;95943.94;5038986;28;20046;-83
2023/01/13 08:09:36;;;;;;;9.40;1.55;;;;;;;8.26;63.59;95942.00;5039778;28;20421;-85
2023/01/13 08:14:59;;;;;;;24.17;2.28;;;;;;;8.37;62.53;95942.56;5043430;28;20056;-85
2023/01/13 08:17:26;;;;;;;30.95;2.65;;;;;;;8.44;61.97;95934.75;5038970;28;20128;-86
2023/01/13 08:19:52;;;;;;;23.23;2.10;;;;;;;8.49;61.65;95937.31;5040701;28;20061;-86
2023/01/13 08:22:19;;;;;;;28.67;2.30;;;;;;;8.49;62.01;95941.97;5039044;28;20064;-84
2023/01/13 08:24:45;;;;;;;45.88;2.40;;;;;;;8.52;61.64;95950.28;5040321;28;20056;-84
2023/01/13 08:27:12;;;;;;;57.50;3.38;;;;;;;8.57;61.43;95958.28;5038982;28;20053;-81
2023/01/13 08:29:38;;;;;;;44.10;2.45;;;;;;;8.61;61.10;95953.84;5040063;28;20045;-84
2023/01/13 08:32:06;;;;;;;0.95;0.40;;;;;;;8.68;60.90;95949.84;5039245;28;20060;-84
2023/01/13 08:34:33;;;;;;;31.65;2.03;;;;;;;8.72;60.62;95950.78;5041027;28;20720;-83
2023/01/13 08:36:59;;;;;;;42.50;2.92;;;;;;;8.73;60.85;95955.13;5040982;28;20060;-79
2023/01/13 08:39:26;;;;;;;34.10;2.20;;;;;;;8.76;60.95;95954.47;5040632;28;20052;-81
2023/01/13 08:41:55;;;;;;;37.25;2.20;;;;;;;8.82;61.04;95942.34;5040268;28;20042;-81
2023/01/13 08:44:22;;;;;;;56.75;4.00;;;;;;;8.88;61.31;95946.53;5040381;28;20076;-82
2023/01/13 08:46:49;;;;;;;25.38;1.92;;;;;;;8.90;60.63;95947.03;5041046;28;20113;-82
2023/01/13 08:49:18;;;;;;;42.10;2.90;;;;;;;8.93;61.10;95951.81;5039989;28;20064;-81
2023/01/13 08:51:44;;;;;;;47.65;3.05;;;;;;;8.98;60.08;95957.09;5039677;28;20057;-81
2023/01/13 08:54:12;;;;;;;51.92;3.65;;;;;;;8.97;61.22;95955.47;5040472;28;20054;-80
2023/01/13 08:56:40;;;;;;;28.65;2.00;;;;;;;9.03;60.72;95964.28;5041108;28;20060;-83
2023/01/13 08:59:08;;;;;;;25.08;2.65;;;;;;;8.94;61.73;95955.34;5040519;28;20057;-87
2023/01/13 09:01:37;;;;;;;12.43;1.42;;;;;;;8.92;61.42;95955.63;5042048;28;20053;-82
2023/01/13 09:04:04;;;;;;;35.80;3.15;;;;;;;8.95;61.92;95963.16;5041074;28;20502;-82
2023/01/13 09:06:33;;;;;;;16.48;2.22;;;;;;;9.10;59.70;95976.28;5039472;28;20522;-82
2023/01/13 09:09:01;;;;;;;22.10;1.88;;;;;;;9.13;59.76;95975.66;5040300;28;20052;-80
2023/01/13 09:14:19;;;;;;;16.10;1.45;;;;;;;9.03;61.61;95975.97;5043413;28;20541;-81
2023/01/13 09:16:45;;;;;;;22.85;1.92;;;;;;;8.96;61.73;95967.47;5044443;28;20061;-85
2023/01/13 09:19:12;;;;;;;28.45;2.63;;;;;;;9.03;60.80;95965.09;5042767;28;20048;-83
2023/01/13 09:21:39;;;;;;;15.25;1.98;;;;;;;9.20;59.52;95964.31;5042485;28;20049;-83
2023/01/13 09:24:07;;;;;;;22.88;2.42;;;;;;;9.32;58.76;95964.47;5037215;28;20053;-85
2023/01/13 09:26:33;;;;;;;20.85;1.98;;;;;;;9.36;58.76;95972.81;5038921;28;20049;-85
2023/01/13 09:29:00;;;;;;;31.27;2.83;;;;;;;9.42;58.60;95966.09;5039812;28;20053;-82
2023/01/13 09:31:27;;;;;;;20.65;2.00;;;;;;;9.46;57.86;95969.75;5039746;28;20049;-82
2023/01/13 09:36:39;;;;;;;19.63;2.10;;;;;;;9.45;58.36;95973.59;5032775;28;20071;-82
2023/01/13 09:39:06;;;;;;;3.60;1.50;;;;;;;9.50;58.15;95978.88;5038793;28;20053;-81
2023/01/13 09:44:27;;;;;;;0.75;0.50;;;;;;;9.54;58.27;95974.38;5037682;28;20088;-83
2023/01/13 09:46:59;;;;;;;0.90;0.65;;;;;;;9.52;58.53;95973.91;5038455;28;20041;-83
2023/01/13 09:49:34;;;;;;;2.85;0.60;;;;;;;9.57;58.16;95978.41;5029867;28;20049;-86
2023/01/13 09:52:10;;;;;;;1.00;0.50;;;;;;;9.60;57.82;95975.03;5037896;28;20050;-86
2023/01/13 09:54:41;;;;;;;1.20;0.50;;;;;;;9.67;57.94;95970.72;5038427;28;20076;-85
2023/01/13 09:57:10;;;;;;;2.38;0.50;;;;;;;9.75;57.84;95973.72;5038250;28;20049;-86
2023/01/13 09:59:37;;;;;;;0.57;0.40;;;;;;;9.76;57.14;95967.16;5039208;28;20045;-84
2023/01/13 10:02:24;;;;;;;0.50;0.50;;;;;;;9.85;56.56;95957.09;5037165;28;20056;-89
2023/01/13 10:05:14;;;;;;;0.88;0.50;;;;;;;9.97;57.43;95967.28;5039350;28;20049;-85
2023/01/13 10:07:47;;;;;;;0.70;0.40;;;;;;;10.10;57.23;95961.66;5032397;28;20045;-85
2023/01/13 10:10:21;;;;;;;0.88;0.40;;;;;;;10.12;55.61;95962.13;5038068;28;20050;-87
2023/01/13 10:15:34;;;;;;;1.38;0.70;;;;;;;10.07;55.78;95956.06;5031737;28;19944;-86
2023/01/13 10:18:12;;;;;;;1.98;0.52;;;;;;;10.11;56.20;95966.00;5037892;28;20055;-86
2023/01/13 10:20:49;;;;;;;1.00;0.50;;;;;;;10.11;56.62;95959.75;5037259;28;20046;-81
2023/01/13 10:23:34;;;;;;;0.77;0.52;;;;;;;10.12;56.57;95962.13;5037861;28;20517;-87
2023/01/13 10:26:09;;;;;;;1.58;0.82;;;;;;;10.13;56.64;95952.09;5039834;28;20111;-83
2023/01/13 10:28:36;;;;;;;1.83;0.50;;;;;;;10.22;55.72;95949.31;5039948;28;20045;-86
2023/01/13 10:31:10;;;;;;;2.22;0.65;;;;;;;10.22;56.21;95960.19;5039327;28;20060;-86
2023/01/13 10:33:36;;;;;;;1.85;0.52;;;;;;;10.26;55.61;95950.28;5039864;28;20068;-85
2023/01/13 10:36:12;;;;;;;0.70;0.50;;;;;;;10.38;55.94;95947.69;5036480;28;20046;-88
2023/01/13 10:38:42;;;;;;;1.02;0.52;;;;;;;10.38;56.38;95937.59;5041706;28;20049;-83
2023/01/13 10:41:19;;;;;;;1.77;0.70;;;;;;;10.43;55.73;95936.63;5042271;28;20053;-88
2023/01/13 10:43:57;;;;;;;0.50;0.30;;;;;;;10.57;55.93;95930.97;5039189;28;20041;-87
2023/01/13 10:46:24;;;;;;;1.77;0.40;;;;;;;10.66;55.96;95935.25;5044901;28;20045;-87
2023/01/13 10:48:54;;;;;;;1.15;0.30;;;;;;;10.49;55.78;95938.03;5043676;28;20318;-85
2023/01/13 10:51:24;;;;;;;1.88;0.32;;;;;;;10.44;55.97;95924.63;5042648;28;20137;-91
2023/01/13 10:53:58;;;;;;;0.90;0.40;;;;;;;10.45;57.60;95920.78;5043039;28;20053;-83
2023/01/13 10:56:27;;;;;;;1.13;0.40;;;;;;;10.38;56.87;95925.91;5036741;28;20309;-82
2023/01/13 10:59:13;;;;;;;1.02;0.50;;;;;;;10.34;56.82;95906.72;5046888;28;20041;-87
2023/01/13 11:01:41;;;;;;;0.57;0.30;;;;;;;10.39;58.20;95908.47;5041122;28;20349;-86
2023/01/13 11:04:28;;;;;;;0.90;0.50;;;;;;;10.62;57.67;95922.59;5045147;28;20046;-83
2023/01/13 11:06:56;;;;;;;0.40;0.40;;;;;;;10.87;56.10;95902.59;5041958;28;20053;-89
2023/01/13 11:09:26;;;;;;;0.95;0.50;;;;;;;10.81;57.12;95900.41;5040142;28;20060;-85
2023/01/13 11:11:55;;;;;;;1.05;0.30;;;;;;;10.76;56.98;95892.41;5035651;28;20057;-90
2023/01/13 11:14:38;;;;;;;0.60;0.40;;;;;;;10.74;57.36;95889.22;5040233;28;20053;-89
2023/01/13 11:17:29;;;;;;;1.05;0.50;;;;;;;10.54;58.66;95913.34;5039801;28;20049;-89
2023/01/13 11:20:05;;;;;;;0.98;0.70;;;;;;;10.31;60.97;95882.09;5039387;28;20049;-89
2023/01/13 11:22:36;;;;;;;1.23;0.50;;;;;;;10.26;61.47;95874.09;5032669;28;20046;-89
2023/01/13 11:25:09;;;;;;;2.83;0.70;;;;;;;10.28;59.71;95899.06;5039651;28;20402;-90
2023/01/13 11:27:43;;;;;;;1.52;0.77;;;;;;;10.32;59.56;95873.59;5040304;28;20045;-86
2023/01/13 11:30:20;;;;;;;2.33;0.77;;;;;;;10.55;58.78;95865.16;5040366;28;20045;-85
2023/01/13 11:33:00;;;;;;;0.68;0.30;;;;;;;10.61;58.59;95853.75;5040723;28;20057;-87
2023/01/13 11:35:29;;;;;;;5.32;0.40;;;;;;;10.55;59.36;95862.44;5032823;28;20068;-85
2023/01/13 11:38:03;;;;;;;1.65;0.40;;;;;;;10.44;59.11;95867.47;5040818;28;20072;-86
2023/01/13 11:40:36;;;;;;;0.40;0.30;;;;;;;10.55;59.65;95867.88;5034443;28;20048;-83
2023/01/13 11:43:10;;;;;;;0.40;0.30;;;;;;;10.57;60.15;95874.56;5035569;28;20063;-86
2023/01/13 11:45:43;;;;;;;1.20;0.40;;;;;;;10.56;60.49;95886.59;5043520;28;20053;-88
2023/01/13 11:48:13;;;;;;;1.45;0.20;;;;;;;10.53;59.69;95879.06;5041112;28;20049;-90
2023/01/13 11:50:46;;;;;;;1.45;0.30;;;;;;;10.43;60.62;95896.56;5042535;28;20050;-90
2023/01/13 11:53:33;;;;;;;1.25;0.40;;;;;;;10.28;61.24;95877.28;5040008;28;20432;-89
2023/01/13 11:56:16;;;;;;;0.68;0.40;;;;;;;10.22;60.83;95889.44;5041214;28;20056;-89
2023/01/13 11:59:06;;;;;;;0.50;0.30;;;;;;;10.17;61.65;95880.34;5038262;28;20045;-90
2023/01/13 12:01:44;;;;;;;0.60;0.40;;;;;;;10.13;62.57;95882.13;5031678;28;20045;-87
2023/01/13 12:04:25;;;;;;;1.00;0.40;;;;;;;10.11;62.41;95884.38;5038391;28;20477;-88
2023/01/13 12:07:11;;;;;;;0.55;0.40;;;;;;;10.17;61.87;95884.97;5042261;28;20049;-88
2023/01/13 12:09:51;;;;;;;0.73;0.30;;;;;;;10.19;62.15;95883.56;5033528;28;20060;-84
2023/01/13 12:12:34;;;;;;;0.22;0.20;;;;;;;10.18;61.31;95890.13;5039483;28;20056;-89
2023/01/13 12:15:24;;;;;;;3.15;0.50;;;;;;;10.24;62.08;95884.53;5042084;28;20072;-86
2023/01/13 12:18:03;;;;;;;1.25;0.50;;;;;;;10.36;62.31;95884.63;5041357;28;20052;-90
2023/01/13 12:20:39;;;;;;;0.85;0.30;;;;;;;10.37;62.18;95888.94;5034506;28;20075;-88
2023/01/13 12:23:15;;;;;;;4.15;0.88;;;;;;;10.37;61.33;95892.44;5041003;28;20052;-90
2023/01/13 12:25:46;;;;;;;1.52;0.60;;;;;;;10.37;61.48;95897.91;5040214;28;20046;-86
2023/01/13 12:28:20;;;;;;;1.42;0.80;;;;;;;10.37;61.28;95908.00;5039102;28;20055;-87
2023/01/13 12:30:51;;;;;;;1.63;0.50;;;;;;;10.37;60.61;95892.44;5040389;28;20057;-90
2023/01/13 12:33:28;;;;;;;1.08;0.68;;;;;;;10.31;60.44;95887.53;5039186;28;20056;-90
2023/01/13 12:36:01;;;;;;;1.00;0.60;;;;;;;10.33;60.78;95894.22;5038894;28;20041;-87